Time;durP1;ratioP1;P1;durP2;ratioP2;P2;SDS_P1;SDS_P2;PMS_P1;PMS_P2;Temp;Humidity;BMP_temperature;BMP_pressure;BME280_temperature;BME280_humidity;BME280_pressure;Samples;Min_cycle;Max_cycle;Signal;HPM_P1;HPM_P2
2021/08/07 00:00:31;;;;;;;8.88;6.20;;;;;;;15.79;63.70;98174.34;262959;1092;115266;-61
2021/08/07 00:05:54;;;;;;;14.43;6.70;;;;;;;15.78;63.92;98169.11;263261;1092;115294;-64
2021/08/07 00:10:58;;;;;;;10.30;6.10;;;;;;;15.74;63.92;98173.92;263562;1093;114990;-61
2021/08/07 00:16:01;;;;;;;10.13;5.73;;;;;;;15.76;63.75;98185.37;263337;1092;115544;-60
2021/08/07 00:21:07;;;;;;;11.77;6.57;;;;;;;15.78;64.32;98183.36;263013;1092;115113;-58
2021/08/07 00:26:11;;;;;;;11.48;6.25;;;;;;;15.78;64.19;98186.05;263717;1093;115166;-62
2021/08/07 00:31:15;;;;;;;12.30;6.63;;;;;;;15.78;63.98;98180.67;263533;1092;115651;-62
2021/08/07 00:36:19;;;;;;;10.43;6.13;;;;;;;15.75;64.18;98188.18;263155;1092;115339;-60
2021/08/07 00:41:23;;;;;;;12.17;6.10;;;;;;;15.73;64.06;98187.50;263430;1093;115497;-61
2021/08/07 00:46:27;;;;;;;14.63;6.50;;;;;;;15.70;64.42;98191.32;262927;1092;114809;-61
2021/08/07 00:51:32;;;;;;;13.73;7.20;;;;;;;15.68;64.30;98195.98;262851;1092;114799;-60
2021/08/07 00:56:39;;;;;;;11.43;7.07;;;;;;;15.67;64.44;98206.87;262673;1092;115755;-68
2021/08/07 01:02:25;;;;;;;15.67;6.63;;;;;;;15.66;64.29;98207.80;263446;1092;115125;-60
2021/08/07 01:07:58;;;;;;;14.45;6.83;;;;;;;15.58;64.48;98204.03;263120;1093;115134;-59
2021/08/07 01:13:09;;;;;;;15.30;7.13;;;;;;;15.53;64.67;98210.84;263173;1092;115553;-59
2021/08/07 01:18:22;;;;;;;11.93;6.80;;;;;;;15.45;64.45;98221.44;263246;1092;115106;-60
2021/08/07 01:23:41;;;;;;;10.23;6.13;;;;;;;15.38;64.65;98207.77;263548;1092;115673;-62
2021/08/07 01:28:46;;;;;;;14.17;6.70;;;;;;;15.37;64.98;98223.02;263356;1093;114937;-62
2021/08/07 01:33:52;;;;;;;12.20;7.13;;;;;;;15.39;65.47;98225.56;263234;1092;115120;-61
2021/08/07 01:39:01;;;;;;;11.87;6.73;;;;;;;15.38;65.15;98235.42;262615;1093;115228;-62
2021/08/07 01:44:06;;;;;;;14.83;7.00;;;;;;;15.40;65.12;98231.77;262648;1092;115389;-64
2021/08/07 01:49:11;;;;;;;;;;;;;;;15.40;65.28;98231.77;263477;1093;116004;-63
2021/08/07 01:54:29;;;;;;;13.60;6.57;;;;;;;15.36;65.38;98231.22;263081;1092;101261;-62
2021/08/07 01:59:37;;;;;;;11.87;6.50;;;;;;;15.31;65.39;98228.11;263434;1093;115313;-65
2021/08/07 02:04:41;;;;;;;12.60;5.67;;;;;;;15.29;65.21;98224.75;263276;1092;115015;-60
2021/08/07 02:09:57;;;;;;;10.80;6.43;;;;;;;15.35;65.52;98230.38;263211;1092;115219;-64
2021/08/07 02:15:01;;;;;;;10.53;5.83;;;;;;;15.42;65.74;98229.77;263638;1093;115419;-64
2021/08/07 02:20:06;;;;;;;11.93;5.93;;;;;;;15.43;65.34;98228.80;263790;1093;115305;-63
2021/08/07 02:25:11;;;;;;;10.28;5.48;;;;;;;15.37;65.10;98219.50;263336;1092;115155;-68
2021/08/07 02:30:29;;;;;;;9.30;5.67;;;;;;;15.31;65.15;98222.75;263340;1092;115428;-61
2021/08/07 02:35:36;;;;;;;12.00;6.07;;;;;;;15.26;65.46;98230.40;263599;1092;116153;-60
2021/08/07 02:40:40;;;;;;;11.23;5.90;;;;;;;15.26;65.46;98227.72;263492;1092;115177;-60
2021/08/07 02:45:46;;;;;;;10.83;5.73;;;;;;;15.27;65.32;98226.72;263510;1092;115125;-61
2021/08/07 02:50:55;;;;;;;10.17;5.80;;;;;;;15.27;65.51;98229.40;263457;1093;115691;-61
2021/08/07 02:56:00;;;;;;;12.03;6.03;;;;;;;15.23;65.60;98231.52;263645;1093;115403;-66
2021/08/07 03:01:04;;;;;;;12.48;5.70;;;;;;;15.16;65.79;98240.30;263532;1091;115307;-64
2021/08/07 03:06:09;;;;;;;14.00;5.83;;;;;;;15.14;65.58;98237.73;263255;1092;115372;-60
2021/08/07 03:11:14;;;;;;;9.70;5.37;;;;;;;15.17;65.95;98245.50;263585;1093;115284;-60
2021/08/07 03:16:18;;;;;;;10.78;5.20;;;;;;;15.22;65.85;98248.61;263482;1092;115416;-59
2021/08/07 03:21:24;;;;;;;14.77;6.40;;;;;;;15.23;65.76;98252.13;263396;1093;115293;-59
2021/08/07 03:26:34;;;;;;;9.70;6.30;;;;;;;15.25;65.67;98247.45;263072;1092;115182;-58
2021/08/07 03:31:44;;;;;;;10.90;6.67;;;;;;;15.25;65.64;98247.45;263305;1092;115522;-59
2021/08/07 03:36:49;;;;;;;10.30;6.05;;;;;;;15.25;65.96;98244.77;263598;1093;116351;-61
2021/08/07 03:41:53;;;;;;;10.05;6.00;;;;;;;15.22;66.11;98250.45;263161;1092;115938;-63
2021/08/07 03:46:57;;;;;;;13.55;6.28;;;;;;;15.23;65.96;98258.33;262663;1092;115223;-62
2021/08/07 03:52:02;;;;;;;12.90;6.53;;;;;;;15.26;66.17;98258.05;263709;1093;115255;-63
2021/08/07 03:57:06;;;;;;;12.83;7.07;;;;;;;15.31;66.17;98247.72;263585;1093;114745;-63
2021/08/07 04:02:10;;;;;;;10.40;6.75;;;;;;;15.36;66.09;98249.98;262854;1092;114834;-60
2021/08/07 04:07:14;;;;;;;17.23;8.03;;;;;;;15.36;66.00;98252.67;263536;1092;115333;-59
2021/08/07 04:12:22;;;;;;;14.87;7.73;;;;;;;15.36;66.09;98253.51;263570;1092;114795;-61
2021/08/07 04:17:26;;;;;;;11.57;6.00;;;;;;;15.38;66.13;98251.51;263269;1093;115303;-61
2021/08/07 04:22:30;;;;;;;52.83;38.13;;;;;;;15.93;68.92;98250.81;263091;1092;115352;-62
2021/08/07 04:27:35;;;;;;;14.60;8.83;;;;;;;17.05;69.07;98245.13;263209;1093;115380;-61
2021/08/07 04:32:38;;;;;;;16.73;11.70;;;;;;;17.76;67.77;98248.60;262383;1093;115648;-65
2021/08/07 04:37:51;;;;;;;16.00;10.13;;;;;;;18.23;66.57;98258.95;263409;1092;115417;-60
2021/08/07 04:43:01;;;;;;;18.27;8.97;;;;;;;18.51;65.89;98254.14;263361;1092;115264;-62
2021/08/07 04:48:08;;;;;;;13.68;6.68;;;;;;;18.70;65.30;98259.23;262916;1092;115572;-58
2021/08/07 04:53:21;;;;;;;29.40;13.93;;;;;;;18.85;64.39;98259.45;262741;1092;115296;-62
2021/08/07 04:58:28;;;;;;;17.37;8.50;;;;;;;18.99;64.16;98272.30;262943;1092;115439;-60
2021/08/07 05:03:32;;;;;;;16.18;9.75;;;;;;;18.97;63.42;98274.30;263585;1093;114949;-56
2021/08/07 05:08:37;;;;;;;14.35;9.55;;;;;;;18.95;63.07;98270.08;263084;1092;115413;-62
2021/08/07 05:13:41;;;;;;;14.00;7.80;;;;;;;18.83;62.88;98273.11;263158;1093;115154;-58
2021/08/07 05:18:48;;;;;;;36.63;24.70;;;;;;;18.75;62.90;98274.94;263198;1092;115347;-57
2021/08/07 05:23:51;;;;;;;9.60;5.50;;;;;;;18.62;62.63;98292.42;263671;1092;115522;-58
2021/08/07 05:28:57;;;;;;;12.83;4.70;;;;;;;18.40;62.37;98288.46;262745;1092;115152;-58
2021/08/07 05:34:00;;;;;;;8.20;5.20;;;;;;;18.28;62.71;98300.56;262583;1092;116609;-61
2021/08/07 05:39:04;;;;;;;12.68;5.70;;;;;;;18.20;62.82;98303.20;263282;1092;115092;-61
2021/08/07 05:44:08;;;;;;;28.15;18.05;;;;;;;18.24;63.25;98299.20;263367;1093;115249;-59
2021/08/07 05:49:13;;;;;;;10.93;5.85;;;;;;;18.33;63.79;98294.67;263243;1093;115989;-57
2021/08/07 05:54:20;;;;;;;;;;;;;;;18.57;63.94;98301.99;263169;1093;115216;-59
2021/08/07 05:59:23;;;;;;;12.40;6.05;;;;;;;18.66;63.95;98296.47;263419;1093;101298;-58
2021/08/07 06:04:27;;;;;;;22.10;16.10;;;;;;;18.73;63.63;98303.93;263616;1093;114942;-59
2021/08/07 06:09:35;;;;;;;11.77;5.53;;;;;;;18.75;63.32;98307.28;263267;1093;115387;-59
2021/08/07 06:14:38;;;;;;;10.90;6.08;;;;;;;18.80;63.65;98302.26;263789;1092;115302;-62
2021/08/07 06:19:44;;;;;;;10.20;6.20;;;;;;;18.90;63.12;98302.95;263455;1092;115371;-61
2021/08/07 06:24:48;;;;;;;7.55;4.53;;;;;;;19.04;63.90;98306.84;263256;1093;115381;-61
2021/08/07 06:29:52;;;;;;;6.50;4.18;;;;;;;19.11;63.79;98300.60;263704;1092;115049;-61
2021/08/07 06:34:55;;;;;;;10.25;5.15;;;;;;;19.18;63.44;98308.88;263193;1093;115661;-60
2021/08/07 06:40:00;;;;;;;7.53;4.55;;;;;;;19.30;63.88;98304.00;263480;1092;115290;-60
2021/08/07 06:45:05;;;;;;;8.43;3.83;;;;;;;19.40;63.47;98314.63;263286;1093;115802;-61
2021/08/07 06:50:10;;;;;;;6.73;3.97;;;;;;;19.41;63.60;98317.14;263386;1092;115202;-60
2021/08/07 06:55:14;;;;;;;5.65;4.28;;;;;;;19.42;63.39;98316.13;263221;1092;115134;-61
2021/08/07 07:00:18;;;;;;;5.07;3.30;;;;;;;19.45;63.67;98321.19;263704;1093;115200;-60
2021/08/07 07:05:29;;;;;;;7.50;3.83;;;;;;;19.54;63.92;98319.34;262951;1093;115102;-60
2021/08/07 07:10:34;;;;;;;4.63;3.27;;;;;;;19.66;63.99;98333.35;263492;1093;115554;-61
2021/08/07 07:15:38;;;;;;;6.83;3.75;;;;;;;19.73;63.75;98320.86;263544;1092;114995;-59
2021/08/07 07:20:42;;;;;;;4.25;2.95;;;;;;;19.78;64.41;98338.23;263328;1092;115383;-61
2021/08/07 07:25:49;;;;;;;4.67;3.00;;;;;;;19.81;64.14;98326.27;263380;1092;115132;-59
2021/08/07 07:30:52;;;;;;;4.37;3.60;;;;;;;19.85;63.85;98333.84;263526;1092;115149;-58
2021/08/07 07:35:57;;;;;;;6.63;3.10;;;;;;;19.91;63.71;98339.58;263685;1092;115107;-59
2021/08/07 07:41:02;;;;;;;6.17;2.90;;;;;;;19.95;63.61;98344.45;262934;1092;115273;-57
2021/08/07 07:46:06;;;;;;;6.30;2.95;;;;;;;20.02;63.27;98353.55;263176;1092;114946;-59
2021/08/07 07:51:10;;;;;;;200.45;144.63;;;;;;;20.11;63.80;98340.88;263515;1093;114916;-59
2021/08/07 07:56:14;;;;;;;9.00;7.28;;;;;;;20.19;63.91;98345.41;263714;1092;115361;-60
2021/08/07 08:01:18;;;;;;;8.58;4.53;;;;;;;20.25;63.72;98350.97;263516;1092;115067;-59
2021/08/07 08:06:22;;;;;;;5.00;3.28;;;;;;;20.31;63.60;98344.00;263881;1092;116323;-59
2021/08/07 08:11:26;;;;;;;4.15;3.20;;;;;;;20.41;63.65;98351.91;263412;1092;115099;-58
2021/08/07 08:16:31;;;;;;;163.05;108.40;;;;;;;20.53;63.87;98348.69;263156;1092;115166;-59
2021/08/07 08:21:36;;;;;;;8.33;4.67;;;;;;;20.64;63.81;98358.27;263098;1093;117347;-60
2021/08/07 08:26:40;;;;;;;6.88;2.78;;;;;;;20.77;63.79;98357.71;263484;1092;115559;-58
2021/08/07 08:31:44;;;;;;;6.67;2.70;;;;;;;20.83;63.34;98362.42;263021;1093;114717;-59
2021/08/07 08:36:48;;;;;;;2.95;1.98;;;;;;;20.86;62.95;98362.07;263369;1092;114844;-59
2021/08/07 08:41:52;;;;;;;5.60;3.08;;;;;;;20.89;62.80;98359.02;263291;1092;115257;-59
2021/08/07 08:46:57;;;;;;;3.35;2.45;;;;;;;20.94;62.66;98362.02;263022;1093;114982;-59
2021/08/07 08:52:01;;;;;;;;;;;;;;;21.03;62.55;98369.06;263404;1093;114627;-60
2021/08/07 08:57:05;;;;;;;5.40;3.80;;;;;;;21.13;62.79;98371.55;263595;1093;103761;-59
2021/08/07 09:02:09;;;;;;;4.93;2.55;;;;;;;21.22;62.33;98365.04;263388;1092;114621;-59
2021/08/07 09:07:15;;;;;;;5.53;2.73;;;;;;;21.30;62.33;98366.00;263354;1093;115005;-59
2021/08/07 09:12:20;;;;;;;3.87;2.70;;;;;;;21.36;61.95;98368.87;263622;1093;115316;-59
2021/08/07 09:17:24;;;;;;;2.77;2.00;;;;;;;21.44;61.09;98367.98;263174;1092;115206;-59
2021/08/07 09:22:33;;;;;;;2.60;1.70;;;;;;;21.52;61.13;98350.83;263464;1092;115464;-58
2021/08/07 09:27:40;;;;;;;3.27;1.73;;;;;;;21.59;61.01;98366.16;263776;1092;115273;-60
2021/08/07 09:32:49;;;;;;;2.83;1.80;;;;;;;21.67;60.50;98359.82;263602;1092;114760;-62
2021/08/07 09:38:19;;;;;;;3.20;1.80;;;;;;;21.76;60.68;98358.73;263917;1092;114683;-62
2021/08/07 09:43:32;;;;;;;21.53;16.33;;;;;;;21.88;60.63;98362.70;263368;1092;115015;-62
2021/08/07 09:48:46;;;;;;;4.77;1.90;;;;;;;21.99;60.20;98357.86;263519;1092;116216;-62
2021/08/07 09:54:12;;;;;;;2.10;1.50;;;;;;;22.11;59.79;98359.94;263132;1092;114719;-61
2021/08/07 09:59:23;;;;;;;2.97;1.60;;;;;;;22.19;59.26;98367.16;263116;1092;115053;-60
2021/08/07 10:04:39;;;;;;;3.57;2.10;;;;;;;22.25;59.23;98366.42;263630;1093;115064;-60
2021/08/07 10:09:46;;;;;;;2.93;1.50;;;;;;;22.34;59.11;98359.02;263876;1091;115198;-59
2021/08/07 10:14:52;;;;;;;64.67;49.03;;;;;;;22.50;59.28;98376.98;263800;1092;114497;-60
2021/08/07 10:19:58;;;;;;;5.40;3.90;;;;;;;22.69;58.95;98368.28;263641;1092;116225;-62
2021/08/07 10:25:07;;;;;;;3.20;1.40;;;;;;;22.86;58.65;98367.03;263876;1093;114864;-59
2021/08/07 10:30:13;;;;;;;2.73;1.30;;;;;;;23.03;57.56;98364.10;263597;1093;115080;-60
2021/08/07 10:35:27;;;;;;;3.77;1.20;;;;;;;23.16;57.05;98369.68;261728;1092;117633;-59
2021/08/07 10:40:32;;;;;;;2.37;1.40;;;;;;;23.32;56.88;98369.44;263813;1093;114879;-59
2021/08/07 10:45:41;;;;;;;4.68;1.30;;;;;;;23.48;55.92;98378.39;263460;1092;115342;-60
2021/08/07 10:50:45;;;;;;;3.63;1.20;;;;;;;23.64;55.16;98378.13;262907;1093;115736;-60
2021/08/07 10:55:50;;;;;;;2.20;1.08;;;;;;;23.73;54.41;98374.25;263894;1092;114754;-61
2021/08/07 11:00:54;;;;;;;1.47;1.17;;;;;;;23.80;54.49;98385.18;263905;1091;115229;-59
2021/08/07 11:05:58;;;;;;;1.58;0.90;;;;;;;23.79;53.55;98372.64;263863;1092;115494;-64
2021/08/07 11:11:30;;;;;;;1.85;1.10;;;;;;;23.84;53.15;98379.18;263648;1092;116067;-63
2021/08/07 11:16:34;;;;;;;4.33;1.23;;;;;;;24.01;53.25;98379.70;263277;1092;115129;-61
2021/08/07 11:21:55;;;;;;;3.15;1.23;;;;;;;24.15;52.78;98367.08;263685;1092;114858;-60
2021/08/07 11:26:59;;;;;;;4.27;1.30;;;;;;;24.36;52.60;98358.00;263522;1092;115249;-61
2021/08/07 11:32:15;;;;;;;3.20;1.25;;;;;;;24.55;52.24;98364.61;263900;1092;115410;-61
2021/08/07 11:37:20;;;;;;;13.87;8.50;;;;;;;24.62;51.46;98365.48;263876;1093;115327;-60
2021/08/07 11:42:35;;;;;;;3.23;2.17;;;;;;;24.72;51.28;98363.22;262847;1092;115126;-60
2021/08/07 11:47:45;;;;;;;2.83;1.20;;;;;;;24.86;50.88;98361.39;263786;1092;116488;-60
2021/08/07 11:52:49;;;;;;;1.70;1.10;;;;;;;25.07;50.63;98360.45;263223;1092;115092;-60
2021/08/07 11:58:07;;;;;;;1.80;1.20;;;;;;;25.25;50.26;98363.45;263654;1092;115174;-60
2021/08/07 12:03:12;;;;;;;1.40;1.30;;;;;;;25.46;50.07;98353.44;263934;1093;115212;-61
2021/08/07 12:08:17;;;;;;;1.43;1.20;;;;;;;25.64;49.91;98348.20;262688;1093;115000;-61
2021/08/07 12:13:23;;;;;;;45.23;34.97;;;;;;;25.83;49.26;98352.02;263898;1093;115480;-59
2021/08/07 12:18:45;;;;;;;6.37;4.90;;;;;;;25.96;49.24;98351.19;263757;1092;115201;-61
2021/08/07 12:24:11;;;;;;;5.30;2.20;;;;;;;26.11;49.10;98337.31;263395;1093;114934;-59
2021/08/07 12:29:18;;;;;;;4.03;1.40;;;;;;;26.33;48.75;98346.11;263148;1092;115076;-60
2021/08/07 12:34:25;;;;;;;1.97;1.17;;;;;;;26.49;48.15;98334.73;263636;1092;115001;-60
2021/08/07 12:39:56;;;;;;;16.27;14.50;;;;;;;26.51;47.96;98337.27;263156;1091;115479;-61
2021/08/07 12:45:09;;;;;;;2.97;2.30;;;;;;;26.62;47.85;98340.15;263000;1092;115233;-62
2021/08/07 12:50:19;;;;;;;2.10;1.37;;;;;;;26.78;47.25;98327.08;263408;1092;114903;-60
2021/08/07 12:55:27;;;;;;;24.90;20.27;;;;;;;26.87;46.84;98317.60;263312;1093;115912;-60
2021/08/07 13:00:38;;;;;;;5.03;1.60;;;;;;;27.04;46.56;98318.77;263206;1092;115317;-58
2021/08/07 13:05:43;;;;;;;23.77;20.63;;;;;;;27.26;47.11;98307.52;263596;1092;114844;-58
2021/08/07 13:10:46;;;;;;;;;;;;;;;27.50;46.38;98314.91;263229;1093;115007;-61
2021/08/07 13:15:50;;;;;;;3.00;2.37;;;;;;;27.74;46.26;98312.41;262696;1092;103194;-62
2021/08/07 13:20:54;;;;;;;2.45;1.40;;;;;;;27.88;45.20;98324.09;263817;1093;115023;-60
2021/08/07 13:26:07;;;;;;;1.70;1.30;;;;;;;27.99;45.09;98315.14;263462;1092;115003;-63
2021/08/07 13:31:10;;;;;;;2.03;1.30;;;;;;;28.18;44.90;98313.29;263875;1093;114673;-62
2021/08/07 13:36:15;;;;;;;2.47;1.30;;;;;;;28.38;44.88;98311.17;263429;1092;115005;-59
2021/08/07 13:41:18;;;;;;;2.98;1.30;;;;;;;28.48;44.29;98316.16;262804;1092;115623;-61
2021/08/07 13:46:22;;;;;;;70.33;62.53;;;;;;;28.56;44.05;98309.53;263094;1091;114770;-59
2021/08/07 13:51:25;;;;;;;7.30;6.03;;;;;;;28.73;44.54;98305.09;263936;1092;115409;-61
2021/08/07 13:56:29;;;;;;;82.28;68.78;;;;;;;28.88;44.01;98302.81;263665;1092;116498;-62
2021/08/07 14:01:33;;;;;;;50.00;42.23;;;;;;;29.02;43.83;98300.75;263456;1092;116180;-60
2021/08/07 14:06:38;;;;;;;16.23;14.50;;;;;;;29.14;43.67;98293.39;263783;1093;115332;-61
2021/08/07 14:11:42;;;;;;;4.50;2.80;;;;;;;29.24;43.39;98296.41;263540;1093;115287;-62
2021/08/07 14:16:45;;;;;;;2.88;2.55;;;;;;;29.28;42.74;98284.97;263165;1092;115967;-62
2021/08/07 14:21:52;;;;;;;2.43;1.77;;;;;;;29.31;42.82;98277.12;263886;1093;114569;-62
2021/08/07 14:26:56;;;;;;;2.80;2.23;;;;;;;29.27;42.49;98275.92;263657;1092;115004;-61
2021/08/07 14:32:00;;;;;;;2.43;1.30;;;;;;;29.18;42.37;98272.70;263279;1092;114796;-60
2021/08/07 14:37:03;;;;;;;3.08;1.70;;;;;;;28.99;42.29;98271.05;263861;1092;114838;-66
2021/08/07 14:42:07;;;;;;;5.05;2.20;;;;;;;28.73;42.21;98269.50;263022;1092;115188;-60
2021/08/07 14:47:11;;;;;;;2.98;1.60;;;;;;;28.44;42.25;98276.63;263407;1092;115344;-62
2021/08/07 14:52:14;;;;;;;1.50;1.18;;;;;;;28.15;42.42;98272.70;263388;1091;115223;-63
2021/08/07 14:57:18;;;;;;;3.90;1.40;;;;;;;27.77;42.50;98265.51;263769;1092;115662;-62
2021/08/07 15:02:22;;;;;;;2.78;1.50;;;;;;;27.47;42.65;98260.68;263091;1090;115634;-63
2021/08/07 15:07:25;;;;;;;2.68;1.38;;;;;;;27.13;42.94;98260.09;263624;1092;115289;-65
2021/08/07 15:12:29;;;;;;;2.93;1.23;;;;;;;26.83;43.09;98259.86;263180;1092;114877;-64
2021/08/07 15:17:35;;;;;;;3.37;1.57;;;;;;;26.59;43.33;98255.96;262762;1092;116691;-61
2021/08/07 15:22:39;;;;;;;5.95;3.28;;;;;;;26.37;43.78;98266.33;263452;1093;115417;-60
2021/08/07 15:27:43;;;;;;;40.63;32.50;;;;;;;26.19;44.02;98263.46;263881;1093;115975;-61
2021/08/07 15:32:47;;;;;;;10.83;4.93;;;;;;;26.02;43.87;98257.63;263429;1092;115741;-61
2021/08/07 15:37:51;;;;;;;8.28;3.93;;;;;;;25.87;44.39;98257.02;263648;1092;115715;-60
2021/08/07 15:42:55;;;;;;;6.53;3.33;;;;;;;25.74;44.61;98260.56;263995;1092;115629;-60
2021/08/07 15:47:58;;;;;;;214.60;150.23;;;;;;;25.65;45.12;98259.13;262924;1093;115012;-63
2021/08/07 15:53:04;;;;;;;37.48;27.90;;;;;;;25.58;45.01;98255.57;263242;1091;115293;-60
2021/08/07 15:58:08;;;;;;;5.73;4.47;;;;;;;25.45;45.29;98259.13;263593;1093;115400;-61
2021/08/07 16:03:11;;;;;;;3.50;2.50;;;;;;;25.37;45.61;98268.33;263650;1092;115559;-62
2021/08/07 16:08:15;;;;;;;4.53;2.18;;;;;;;25.29;45.78;98259.54;263809;1092;115157;-64
2021/08/07 16:13:19;;;;;;;3.83;1.85;;;;;;;25.20;46.11;98262.48;263697;1093;115324;-61
2021/08/07 16:18:23;;;;;;;3.53;2.00;;;;;;;25.13;46.00;98258.88;264003;1093;115214;-60
2021/08/07 16:23:26;;;;;;;7.35;1.53;;;;;;;25.08;46.26;98249.64;263476;1091;115223;-62
2021/08/07 16:28:30;;;;;;;2.05;1.53;;;;;;;25.04;46.76;98246.50;263456;1093;115338;-61
2021/08/07 16:33:34;;;;;;;1.65;1.23;;;;;;;25.00;47.10;98243.36;263762;1092;114779;-62
2021/08/07 16:38:39;;;;;;;2.70;1.80;;;;;;;24.95;46.86;98237.67;263746;1093;115241;-61
2021/08/07 16:43:42;;;;;;;;;;;;;;;24.90;47.20;98242.09;263916;1093;115275;-64
2021/08/07 16:48:47;;;;;;;3.70;1.90;;;;;;;24.82;47.39;98247.70;263285;1093;101602;-63
2021/08/07 16:53:50;;;;;;;41.43;31.30;;;;;;;24.77;47.62;98243.72;263854;1093;115062;-63
2021/08/07 16:58:55;;;;;;;4.77;3.00;;;;;;;24.77;47.95;98246.44;263691;1093;115596;-64
2021/08/07 17:03:58;;;;;;;4.80;2.70;;;;;;;24.76;48.09;98242.05;263650;1092;114662;-64
2021/08/07 17:09:03;;;;;;;6.20;2.60;;;;;;;24.74;48.36;98249.57;263815;1092;114537;-63
2021/08/07 17:14:07;;;;;;;3.70;2.40;;;;;;;24.74;48.49;98246.84;263481;1091;114631;-63
2021/08/07 17:19:16;;;;;;;5.27;2.50;;;;;;;24.71;48.75;98244.53;263589;1093;115301;-60
2021/08/07 17:24:20;;;;;;;6.27;2.30;;;;;;;24.67;48.89;98245.16;263524;1092;115190;-60
2021/08/07 17:29:24;;;;;;;8.80;3.00;;;;;;;24.62;49.15;98253.92;263660;1093;115618;-60
2021/08/07 17:34:31;;;;;;;7.20;2.78;;;;;;;24.59;49.17;98256.20;263885;1092;115231;-62
2021/08/07 17:39:35;;;;;;;212.17;150.77;;;;;;;24.53;49.19;98260.61;263923;1092;114918;-60
2021/08/07 17:44:39;;;;;;;182.23;137.07;;;;;;;24.48;49.50;98250.31;263831;1092;115713;-61
2021/08/07 17:49:43;;;;;;;21.77;14.90;;;;;;;24.41;49.83;98259.50;263394;1092;115739;-62
2021/08/07 17:54:46;;;;;;;13.48;9.80;;;;;;;24.31;49.95;98266.11;263452;1092;115430;-63
2021/08/07 17:59:50;;;;;;;13.40;8.98;;;;;;;24.17;50.38;98269.81;263872;1092;115056;-63
2021/08/07 18:04:55;;;;;;;11.03;6.07;;;;;;;24.08;50.76;98268.28;263812;1093;115905;-62
2021/08/07 18:09:58;;;;;;;73.50;64.63;;;;;;;24.02;50.76;98277.27;263205;1092;114795;-61
2021/08/07 18:15:04;;;;;;;8.55;7.38;;;;;;;23.98;51.04;98281.41;263768;1093;115461;-61
2021/08/07 18:20:08;;;;;;;8.67;3.30;;;;;;;23.89;51.23;98282.62;263879;1092;115667;-63
2021/08/07 18:25:13;;;;;;;3.83;2.68;;;;;;;23.82;51.27;98288.84;263215;1093;115553;-61
2021/08/07 18:30:16;;;;;;;;;;;;;;;23.74;51.36;98290.86;264007;1091;115558;-61
2021/08/07 18:35:20;;;;;;;4.83;2.70;;;;;;;23.65;51.53;98295.58;263543;1092;102347;-62
2021/08/07 18:40:23;;;;;;;6.18;2.68;;;;;;;23.61;51.88;98306.00;263327;1093;114608;-60
2021/08/07 18:45:28;;;;;;;4.90;3.23;;;;;;;23.55;51.87;98297.80;263573;1092;115253;-60
2021/08/07 18:50:31;;;;;;;4.70;3.10;;;;;;;23.44;52.13;98301.89;263898;1093;116049;-60
2021/08/07 18:55:35;;;;;;;5.13;2.80;;;;;;;23.33;52.49;98297.80;263876;1093;115510;-60
2021/08/07 19:00:39;;;;;;;;;;;;;;;23.25;52.74;98297.11;263573;1092;115742;-59
2021/08/07 19:05:59;;;;;;;8.07;4.10;;;;;;;23.14;52.98;98288.45;263553;1093;102262;-61
2021/08/07 19:11:03;;;;;;;123.98;98.63;;;;;;;23.11;53.45;98285.28;263940;1092;114962;-62
2021/08/07 19:16:08;;;;;;;9.33;5.77;;;;;;;23.06;53.31;98285.00;263390;1091;115561;-61
2021/08/07 19:21:12;;;;;;;5.90;3.30;;;;;;;22.96;53.60;98285.35;263639;1093;115327;-62
2021/08/07 19:26:19;;;;;;;6.68;4.18;;;;;;;22.85;53.88;98281.21;263495;1092;115109;-58
2021/08/07 19:31:23;;;;;;;6.97;3.40;;;;;;;22.75;53.80;98277.97;263535;1093;115242;-62
2021/08/07 19:36:27;;;;;;;89.90;69.25;;;;;;;22.66;54.17;98276.42;263497;1093;115258;-62
2021/08/07 19:41:31;;;;;;;13.47;9.57;;;;;;;22.60;54.18;98279.90;263429;1093;115111;-64
2021/08/07 19:46:35;;;;;;;5.98;3.70;;;;;;;22.50;54.56;98272.05;263572;1092;114649;-64
2021/08/07 19:51:39;;;;;;;6.30;3.10;;;;;;;22.41;54.76;98268.60;263687;1092;114974;-62
2021/08/07 19:56:43;;;;;;;4.30;3.30;;;;;;;22.32;55.03;98261.63;263405;1093;116156;-61
2021/08/07 20:01:46;;;;;;;11.08;4.10;;;;;;;22.25;55.19;98290.52;263401;1092;115382;-63
2021/08/07 20:06:50;;;;;;;6.33;4.00;;;;;;;22.17;55.40;98275.17;263737;1093;115265;-63
2021/08/07 20:11:54;;;;;;;7.35;3.55;;;;;;;22.07;55.59;98288.13;263069;1092;114887;-66
2021/08/07 20:16:58;;;;;;;9.18;3.50;;;;;;;21.97;55.98;98288.41;263259;1092;114492;-68
2021/08/07 20:22:02;;;;;;;7.43;3.80;;;;;;;21.90;56.16;98289.34;263725;1092;115257;-64
2021/08/07 20:27:06;;;;;;;;;;;;;;;21.84;56.32;98288.24;263376;1092;115008;-65
2021/08/07 20:32:10;;;;;;;7.47;3.73;;;;;;;21.78;56.28;98283.56;263832;1092;101740;-66
2021/08/07 20:37:14;;;;;;;;;;;;;;;21.77;56.75;98272.89;263311;1092;114896;-64
2021/08/07 20:42:17;;;;;;;7.13;3.43;;;;;;;21.72;56.91;98273.45;263661;1092;101742;-65
2021/08/07 20:47:21;;;;;;;8.45;4.28;;;;;;;21.68;57.15;98264.03;263661;1092;114982;-65
2021/08/07 20:52:25;;;;;;;7.75;4.88;;;;;;;21.66;57.29;98274.19;263612;1091;114528;-65
2021/08/07 20:57:29;;;;;;;6.30;4.20;;;;;;;21.60;57.42;98275.80;263074;1092;114748;-65
2021/08/07 21:02:32;;;;;;;6.50;4.23;;;;;;;21.54;57.48;98275.69;263428;1092;115238;-65
2021/08/07 21:07:36;;;;;;;5.63;4.30;;;;;;;21.44;57.96;98278.65;263435;1092;115307;-66
2021/08/07 21:12:40;;;;;;;6.50;4.10;;;;;;;21.35;58.04;98285.98;263481;1093;115621;-62
2021/08/07 21:17:44;;;;;;;8.25;4.13;;;;;;;21.27;58.14;98288.73;263581;1091;115382;-66
2021/08/07 21:22:49;;;;;;;7.33;4.60;;;;;;;21.21;58.50;98282.17;263497;1092;114852;-66
2021/08/07 21:27:52;;;;;;;8.67;4.10;;;;;;;21.19;58.88;98272.55;263662;1093;115099;-66
2021/08/07 21:32:56;;;;;;;10.65;4.83;;;;;;;21.16;58.85;98278.32;263642;1092;114725;-65
2021/08/07 21:38:00;;;;;;;8.20;4.40;;;;;;;21.11;59.18;98284.29;262583;1093;115624;-64
2021/08/07 21:43:07;;;;;;;8.73;5.18;;;;;;;21.02;59.29;98283.52;263639;1093;115060;-67
2021/08/07 21:48:12;;;;;;;11.07;5.13;;;;;;;20.94;59.21;98293.55;263439;1093;115411;-67
2021/08/07 21:53:17;;;;;;;;;;;;;;;20.88;59.75;98297.80;263714;1092;115997;-68
2021/08/07 21:58:21;;;;;;;7.15;5.53;;;;;;;20.80;59.86;98305.98;263612;1092;102439;-66
2021/08/07 22:03:25;;;;;;;10.45;5.90;;;;;;;20.74;60.12;98309.39;262477;1093;114915;-63
2021/08/07 22:08:34;;;;;;;11.00;5.47;;;;;;;20.73;60.49;98305.01;262325;1092;115702;-73
2021/08/07 22:13:41;;;;;;;13.10;6.43;;;;;;;20.73;60.47;98311.25;263504;1093;115057;-70
2021/08/07 22:18:48;;;;;;;16.73;5.47;;;;;;;20.73;60.64;98305.01;262650;1092;115916;-66
2021/08/07 22:23:54;;;;;;;11.17;6.60;;;;;;;20.74;60.69;98307.52;263279;1093;115364;-69
2021/08/07 22:28:57;;;;;;;11.63;6.43;;;;;;;20.68;60.94;98292.00;262865;1092;114849;-67
2021/08/07 22:34:03;;;;;;;8.10;5.53;;;;;;;20.66;61.21;98302.17;262599;1093;115209;-68
2021/08/07 22:39:08;;;;;;;7.60;4.63;;;;;;;20.62;61.49;98299.98;263499;1092;115062;-67
2021/08/07 22:44:12;;;;;;;11.53;5.53;;;;;;;20.59;61.13;98292.25;263213;1092;115108;-66
2021/08/07 22:49:16;;;;;;;7.48;5.18;;;;;;;20.54;61.44;98290.89;263796;1092;115701;-67
2021/08/07 22:54:19;;;;;;;8.73;5.25;;;;;;;20.50;61.66;98286.87;263556;1093;116226;-65
2021/08/07 22:59:23;;;;;;;8.17;5.63;;;;;;;20.45;61.74;98283.00;263683;1092;114944;-64
2021/08/07 23:04:27;;;;;;;12.40;6.13;;;;;;;20.41;61.79;98279.78;263331;1093;115106;-68
2021/08/07 23:09:31;;;;;;;10.30;5.63;;;;;;;20.41;61.97;98274.38;263199;1093;114817;-66
2021/08/07 23:14:34;;;;;;;15.90;6.78;;;;;;;20.38;62.11;98281.98;263182;1092;116197;-64
2021/08/07 23:19:39;;;;;;;12.30;6.10;;;;;;;20.41;62.21;98268.97;262856;1092;115296;-69